sensor_id;sensor_type;location;lat;lon;timestamp;pressure;altitude;pressure_sealevel;temperature;humidity
56632;BME280;42503;39.928;-75.152;2023-07-09T00:06:27;100797.56;;;27.25;39.26
56632;BME280;42503;39.928;-75.152;2023-07-09T00:16:28;100801.03;;;27.22;39.03
56632;BME280;42503;39.928;-75.152;2023-07-09T00:26:33;100799.97;;;27.01;38.54
56632;BME280;42503;39.928;-75.152;2023-07-09T00:36:34;100826.72;;;27.07;38.01
56632;BME280;42503;39.928;-75.152;2023-07-09T00:56:41;100840.41;;;26.91;37.66
56632;BME280;42503;39.928;-75.152;2023-07-09T01:06:54;100821.88;;;26.81;37.59
56632;BME280;42503;39.928;-75.152;2023-07-09T01:17:00;100804.34;;;26.76;37.32
56632;BME280;42503;39.928;-75.152;2023-07-09T01:27:03;100824.25;;;26.66;37.29
56632;BME280;42503;39.928;-75.152;2023-07-09T01:37:08;100861.56;;;26.66;36.91
56632;BME280;42503;39.928;-75.152;2023-07-09T01:47:09;100866.69;;;26.64;37.03
56632;BME280;42503;39.928;-75.152;2023-07-09T01:57:19;100877.91;;;26.64;36.84
56632;BME280;42503;39.928;-75.152;2023-07-09T02:07:24;100872.09;;;26.38;36.73
56632;BME280;42503;39.928;-75.152;2023-07-09T02:17:25;100874.59;;;26.40;36.61
56632;BME280;42503;39.928;-75.152;2023-07-09T02:27:27;100872.56;;;26.31;36.43
56632;BME280;42503;39.928;-75.152;2023-07-09T02:37:29;100907.03;;;26.46;36.79
56632;BME280;42503;39.928;-75.152;2023-07-09T02:47:30;100917.41;;;26.45;36.83
56632;BME280;42503;39.928;-75.152;2023-07-09T02:57:32;100928.75;;;26.40;36.61
56632;BME280;42503;39.928;-75.152;2023-07-09T03:07:36;100917.66;;;26.35;36.55
56632;BME280;42503;39.928;-75.152;2023-07-09T03:17:37;100915.81;;;26.30;36.28
56632;BME280;42503;39.928;-75.152;2023-07-09T03:27:39;100919.84;;;26.24;36.19
56632;BME280;42503;39.928;-75.152;2023-07-09T03:37:43;100897.13;;;26.26;36.48
56632;BME280;42503;39.928;-75.152;2023-07-09T03:47:44;100884.69;;;26.18;36.59
56632;BME280;42503;39.928;-75.152;2023-07-09T03:57:45;100881.25;;;26.21;36.26
56632;BME280;42503;39.928;-75.152;2023-07-09T04:07:47;100916.03;;;26.20;35.96
56632;BME280;42503;39.928;-75.152;2023-07-09T04:17:49;100901.00;;;26.16;36.16
56632;BME280;42503;39.928;-75.152;2023-07-09T04:27:54;100899.97;;;26.12;35.95
56632;BME280;42503;39.928;-75.152;2023-07-09T04:37:58;100920.84;;;26.06;35.92
56632;BME280;42503;39.928;-75.152;2023-07-09T04:47:59;100910.28;;;26.03;35.85
56632;BME280;42503;39.928;-75.152;2023-07-09T04:58:01;100921.88;;;26.10;37.26
56632;BME280;42503;39.928;-75.152;2023-07-09T05:08:02;100904.44;;;26.35;41.00
56632;BME280;42503;39.928;-75.152;2023-07-09T05:18:03;100902.63;;;26.53;43.14
56632;BME280;42503;39.928;-75.152;2023-07-09T05:28:08;100914.28;;;26.69;44.62
56632;BME280;42503;39.928;-75.152;2023-07-09T05:38:10;100909.38;;;26.83;45.18
56632;BME280;42503;39.928;-75.152;2023-07-09T05:48:11;100917.41;;;26.99;44.87
56632;BME280;42503;39.928;-75.152;2023-07-09T05:58:13;100923.25;;;27.11;44.77
56632;BME280;42503;39.928;-75.152;2023-07-09T06:08:14;100898.84;;;27.20;45.20
56632;BME280;42503;39.928;-75.152;2023-07-09T06:18:16;100891.28;;;27.29;45.51
56632;BME280;42503;39.928;-75.152;2023-07-09T06:28:22;100882.69;;;27.34;45.39
56632;BME280;42503;39.928;-75.152;2023-07-09T06:38:25;100878.25;;;27.42;45.67
56632;BME280;42503;39.928;-75.152;2023-07-09T06:48:33;100875.13;;;27.44;45.42
56632;BME280;42503;39.928;-75.152;2023-07-09T06:58:36;100878.25;;;27.42;45.81
56632;BME280;42503;39.928;-75.152;2023-07-09T07:08:37;100891.19;;;27.60;45.54
56632;BME280;42503;39.928;-75.152;2023-07-09T07:18:39;100877.31;;;27.55;45.85
56632;BME280;42503;39.928;-75.152;2023-07-09T07:28:43;100862.59;;;27.58;45.74
56632;BME280;42503;39.928;-75.152;2023-07-09T07:38:44;100871.41;;;27.74;45.74
56632;BME280;42503;39.928;-75.152;2023-07-09T07:48:46;100852.53;;;27.75;45.62
56632;BME280;42503;39.928;-75.152;2023-07-09T07:58:50;100853.72;;;27.82;45.67
56632;BME280;42503;39.928;-75.152;2023-07-09T08:08:51;100853.03;;;27.85;45.84
56632;BME280;42503;39.928;-75.152;2023-07-09T08:18:53;100844.28;;;27.87;45.68
56632;BME280;42503;39.928;-75.152;2023-07-09T08:28:54;100855.03;;;27.94;45.64
56632;BME280;42503;39.928;-75.152;2023-07-09T08:38:55;100854.38;;;27.97;45.66
56632;BME280;42503;39.928;-75.152;2023-07-09T08:48:59;100833.88;;;27.88;45.56
56632;BME280;42503;39.928;-75.152;2023-07-09T08:59:03;100839.81;;;27.95;45.47
56632;BME280;42503;39.928;-75.152;2023-07-09T09:09:28;100847.41;;;28.03;45.64
56632;BME280;42503;39.928;-75.152;2023-07-09T09:19:33;100854.03;;;28.07;45.43
56632;BME280;42503;39.928;-75.152;2023-07-09T09:29:42;100814.00;;;27.75;45.17
56632;BME280;42503;39.928;-75.152;2023-07-09T09:39:43;100862.13;;;28.08;45.44
56632;BME280;42503;39.928;-75.152;2023-07-09T09:49:44;100865.63;;;28.14;45.52
56632;BME280;42503;39.928;-75.152;2023-07-09T09:59:46;100862.13;;;28.08;45.50
56632;BME280;42503;39.928;-75.152;2023-07-09T10:09:51;100851.56;;;28.14;45.45
56632;BME280;42503;39.928;-75.152;2023-07-09T10:40:57;100855.38;;;28.18;45.54
56632;BME280;42503;39.928;-75.152;2023-07-09T10:51:00;100867.75;;;28.26;45.49
56632;BME280;42503;39.928;-75.152;2023-07-09T11:01:04;100866.59;;;28.27;45.59
56632;BME280;42503;39.928;-75.152;2023-07-09T11:11:11;100866.09;;;28.25;45.39
56632;BME280;42503;39.928;-75.152;2023-07-09T11:21:16;100881.16;;;28.29;45.49
56632;BME280;42503;39.928;-75.152;2023-07-09T11:51:49;100885.78;;;28.33;45.60
56632;BME280;42503;39.928;-75.152;2023-07-09T12:01:55;100884.31;;;28.36;45.71
56632;BME280;42503;39.928;-75.152;2023-07-09T12:12:01;100887.63;;;28.38;45.67
56632;BME280;42503;39.928;-75.152;2023-07-09T12:22:18;100877.34;;;28.25;45.54
56632;BME280;42503;39.928;-75.152;2023-07-09T12:32:20;100875.19;;;28.30;45.55
56632;BME280;42503;39.928;-75.152;2023-07-09T12:42:32;100889.44;;;28.43;45.52
56632;BME280;42503;39.928;-75.152;2023-07-09T12:52:34;100902.34;;;28.44;45.46
56632;BME280;42503;39.928;-75.152;2023-07-09T13:02:54;100885.16;;;28.36;45.73
56632;BME280;42503;39.928;-75.152;2023-07-09T13:13:06;100876.38;;;28.38;45.82
56632;BME280;42503;39.928;-75.152;2023-07-09T13:23:25;100879.84;;;28.44;45.87
56632;BME280;42503;39.928;-75.152;2023-07-09T13:33:33;100876.03;;;28.48;45.87
56632;BME280;42503;39.928;-75.152;2023-07-09T13:43:43;100857.31;;;28.44;45.81
56632;BME280;42503;39.928;-75.152;2023-07-09T13:53:53;100848.53;;;28.45;45.63
56632;BME280;42503;39.928;-75.152;2023-07-09T14:03:56;100857.13;;;28.49;45.69
56632;BME280;42503;39.928;-75.152;2023-07-09T14:14:36;100862.28;;;28.47;46.02
56632;BME280;42503;39.928;-75.152;2023-07-09T14:24:38;100829.84;;;28.41;45.92
56632;BME280;42503;39.928;-75.152;2023-07-09T14:34:40;100843.41;;;28.56;45.97
56632;BME280;42503;39.928;-75.152;2023-07-09T14:44:41;100822.03;;;28.55;46.11
56632;BME280;42503;39.928;-75.152;2023-07-09T14:54:44;100822.03;;;28.55;46.07
56632;BME280;42503;39.928;-75.152;2023-07-09T15:04:46;100809.78;;;28.59;45.88
56632;BME280;42503;39.928;-75.152;2023-07-09T15:14:48;100771.19;;;28.60;46.01
56632;BME280;42503;39.928;-75.152;2023-07-09T15:24:50;100789.88;;;28.65;46.05
56632;BME280;42503;39.928;-75.152;2023-07-09T15:34:51;100785.72;;;28.62;46.06
56632;BME280;42503;39.928;-75.152;2023-07-09T15:44:55;100781.09;;;28.66;46.20
56632;BME280;42503;39.928;-75.152;2023-07-09T15:54:57;100787.53;;;28.67;46.07
56632;BME280;42503;39.928;-75.152;2023-07-09T16:04:58;100783.22;;;28.69;46.05
56632;BME280;42503;39.928;-75.152;2023-07-09T16:15:05;100780.41;;;28.69;46.00
56632;BME280;42503;39.928;-75.152;2023-07-09T16:25:13;100741.81;;;28.70;46.40
56632;BME280;42503;39.928;-75.152;2023-07-09T16:35:17;100721.31;;;28.60;46.39
56632;BME280;42503;39.928;-75.152;2023-07-09T16:45:20;100729.03;;;28.72;46.22
56632;BME280;42503;39.928;-75.152;2023-07-09T16:55:27;100685.06;;;28.59;46.30
56632;BME280;42503;39.928;-75.152;2023-07-09T17:05:31;100700.06;;;28.33;44.13
56632;BME280;42503;39.928;-75.152;2023-07-09T17:15:35;100670.09;;;27.91;43.23
56632;BME280;42503;39.928;-75.152;2023-07-09T17:25:40;100673.59;;;27.79;42.52
56632;BME280;42503;39.928;-75.152;2023-07-09T17:35:42;100648.47;;;27.56;41.97
56632;BME280;42503;39.928;-75.152;2023-07-09T17:45:45;100663.03;;;27.58;41.25
56632;BME280;42503;39.928;-75.152;2023-07-09T17:55:47;100645.03;;;27.51;40.76
56632;BME280;42503;39.928;-75.152;2023-07-09T18:05:56;100648.81;;;27.46;40.98
56632;BME280;42503;39.928;-75.152;2023-07-09T18:15:57;100647.00;;;27.42;41.07
56632;BME280;42503;39.928;-75.152;2023-07-09T18:26:01;100624.72;;;27.36;40.96
56632;BME280;42503;39.928;-75.152;2023-07-09T18:36:03;100607.03;;;27.27;41.31
56632;BME280;42503;39.928;-75.152;2023-07-09T18:46:05;100606.69;;;27.20;41.19
56632;BME280;42503;39.928;-75.152;2023-07-09T18:56:08;100605.06;;;27.19;40.69
56632;BME280;42503;39.928;-75.152;2023-07-09T19:06:10;100602.59;;;27.09;40.79
56632;BME280;42503;39.928;-75.152;2023-07-09T19:16:26;100621.56;;;27.12;40.77
56632;BME280;42503;39.928;-75.152;2023-07-09T19:26:28;100537.16;;;26.74;40.64
56632;BME280;42503;39.928;-75.152;2023-07-09T19:36:29;100579.63;;;26.90;40.60
56632;BME280;42503;39.928;-75.152;2023-07-09T19:46:32;100602.72;;;27.04;40.31
56632;BME280;42503;39.928;-75.152;2023-07-09T19:56:34;100578.59;;;27.03;40.68
56632;BME280;42503;39.928;-75.152;2023-07-09T20:06:35;100583.56;;;26.97;40.43
56632;BME280;42503;39.928;-75.152;2023-07-09T20:16:36;100596.13;;;27.00;40.42
56632;BME280;42503;39.928;-75.152;2023-07-09T20:26:38;100569.84;;;26.96;40.33
56632;BME280;42503;39.928;-75.152;2023-07-09T20:36:43;100554.81;;;26.92;40.48
56632;BME280;42503;39.928;-75.152;2023-07-09T20:46:44;100574.81;;;26.90;40.22
56632;BME280;42503;39.928;-75.152;2023-07-09T20:56:46;100587.69;;;26.82;40.36
56632;BME280;42503;39.928;-75.152;2023-07-09T21:06:49;100593.66;;;26.81;40.53
56632;BME280;42503;39.928;-75.152;2023-07-09T21:16:55;100600.41;;;26.71;40.04
56632;BME280;42503;39.928;-75.152;2023-07-09T21:26:59;100658.19;;;26.72;40.24
56632;BME280;42503;39.928;-75.152;2023-07-09T21:37:13;100665.94;;;26.58;40.10
56632;BME280;42503;39.928;-75.152;2023-07-09T21:47:19;100701.44;;;26.63;39.31
56632;BME280;42503;39.928;-75.152;2023-07-09T21:57:20;100725.00;;;26.53;39.06
56632;BME280;42503;39.928;-75.152;2023-07-09T22:07:23;100743.66;;;26.49;39.02
56632;BME280;42503;39.928;-75.152;2023-07-09T22:17:26;100826.66;;;26.50;38.79
56632;BME280;42503;39.928;-75.152;2023-07-09T22:27:28;100777.19;;;26.31;38.54
56632;BME280;42503;39.928;-75.152;2023-07-09T22:37:29;100775.88;;;26.38;38.52
56632;BME280;42503;39.928;-75.152;2023-07-09T22:47:35;100765.34;;;26.34;38.34
56632;BME280;42503;39.928;-75.152;2023-07-09T22:57:36;100769.09;;;26.30;38.06
56632;BME280;42503;39.928;-75.152;2023-07-09T23:07:43;100759.97;;;26.24;38.04
56632;BME280;42503;39.928;-75.152;2023-07-09T23:17:45;100721.38;;;26.21;37.67
56632;BME280;42503;39.928;-75.152;2023-07-09T23:27:46;100665.34;;;25.99;37.72
56632;BME280;42503;39.928;-75.152;2023-07-09T23:37:51;100645.28;;;26.14;37.57
56632;BME280;42503;39.928;-75.152;2023-07-09T23:47:54;100619.03;;;26.10;37.39
56632;BME280;42503;39.928;-75.152;2023-07-09T23:57:58;100611.13;;;26.12;38.94
